»·PEaware :: N120SU KSNA-KRNM

N120SU :: KSNA-KRNM

FLIGHT INFORMATION

Flight Status: Arrived
Operator: Privately registered:
United States
More flights under this callsign
Pilot: Oklahoma State Flight Center (8673)
Aircraft: CESSNA 172 SKYHAWK
(C172)
More flights by this aircraft type
Origin: KSNA John Wayne-Orange Co
United States
Destination: KRNM Ramona
United States
More flights between these airports :: More routes between these airports
Route: V23 OCN V208 JLI
File this flight plan on PilotEdge
Remarks: TRAINING
Altitude:
(Current/Filed)
7,000ft
Speed:
(Current/Filed)
105kts
Departed: 23-Oct-20 10:39 AM
Arrived: 23-Oct-20 11:23 AM
Distance/Time
Traveled:
61nm/0:43
Distance/Time
To Go:
Arrived

Flight Plot

Page will automatically refresh every two minutes.


Map Options




Map Legend


Flown Route
Filed Route
Departure Airport
Arrival Airport
Navaid (VOR, NDB)
Fix

Horizontal Profiles

Position Reports

Time Latitude Longitude Heading Altitude Ground
Speed
23-Oct-20 10:20 33.668566 -117.875193 124 59ft 0kts
23-Oct-20 10:21 33.668563 -117.875188 124 59ft 0kts
23-Oct-20 10:22 33.668561 -117.875184 124 59ft 0kts
23-Oct-20 10:23 33.668558 -117.875180 124 59ft 0kts
23-Oct-20 10:24 33.668556 -117.875175 124 59ft 0kts
23-Oct-20 10:25 33.668553 -117.875171 124 59ft 0kts
23-Oct-20 10:26 33.668551 -117.875167 124 59ft 0kts
23-Oct-20 10:27 33.668548 -117.875162 124 59ft 0kts
23-Oct-20 10:28 33.668546 -117.875158 123 59ft 0kts
23-Oct-20 10:29 33.668543 -117.875153 123 59ft 0kts
23-Oct-20 10:30 33.668541 -117.875149 123 59ft 0kts
23-Oct-20 10:31 33.668538 -117.875145 123 59ft 0kts
23-Oct-20 10:31 33.668536 -117.875141 123 59ft 0kts
23-Oct-20 10:33 33.668533 -117.875136 123 59ft 0kts
23-Oct-20 10:33 33.669261 -117.874389 30 59ft 5kts
23-Oct-20 10:35 33.676050 -117.870305 26 59ft 25kts
23-Oct-20 10:35 33.680494 -117.867640 26 59ft 18kts
23-Oct-20 10:36 33.680894 -117.866578 120 59ft 0kts
23-Oct-20 10:37 33.680782 -117.866335 117 59ft 10kts
23-Oct-20 10:38 33.667298 -117.874560 208 489ft 87kts
23-Oct-20 10:39 33.647291 -117.879562 186 1731ft 71kts
23-Oct-20 10:40 33.627496 -117.883284 186 2772ft 72kts
23-Oct-20 10:41 33.607442 -117.887039 186 3727ft 73kts
23-Oct-20 10:42 33.593249 -117.876862 111 4588ft 76kts
23-Oct-20 10:43 33.586089 -117.852693 111 5352ft 77kts
23-Oct-20 10:44 33.578845 -117.828518 112 6029ft 78kts
23-Oct-20 10:45 33.570247 -117.804798 125 6627ft 77kts
23-Oct-20 10:46 33.554839 -117.785017 136 7038ft 91kts
23-Oct-20 10:47 33.535516 -117.762329 136 6996ft 98kts
23-Oct-20 10:48 33.514258 -117.737350 136 7005ft 113kts
23-Oct-20 10:49 33.491810 -117.710975 136 6999ft 112kts
23-Oct-20 10:50 33.469393 -117.684677 136 7000ft 112kts
23-Oct-20 10:51 33.447080 -117.658529 136 7000ft 112kts
23-Oct-20 10:52 33.424683 -117.632296 136 7000ft 112kts
23-Oct-20 10:53 33.402415 -117.606234 136 7000ft 112kts
23-Oct-20 10:54 33.379898 -117.579898 136 6999ft 112kts
23-Oct-20 10:55 33.357501 -117.553731 136 6957ft 115kts
23-Oct-20 10:56 33.334689 -117.527090 136 6913ft 112kts
23-Oct-20 10:57 33.312200 -117.500951 137 6916ft 112kts
23-Oct-20 10:58 33.289745 -117.474810 136 6917ft 112kts
23-Oct-20 10:59 33.268150 -117.449637 137 6903ft 97kts
23-Oct-20 11:00 33.249696 -117.428132 137 6913ft 90kts
23-Oct-20 11:01 33.238954 -117.401973 101 6923ft 94kts
23-Oct-20 11:02 33.235174 -117.370365 100 6919ft 98kts
23-Oct-20 11:03 33.231357 -117.337788 100 6917ft 99kts
23-Oct-20 11:04 33.227508 -117.304985 100 6916ft 99kts
23-Oct-20 11:05 33.223676 -117.272392 100 6917ft 99kts
23-Oct-20 11:06 33.219800 -117.239543 100 6918ft 99kts
23-Oct-20 11:07 33.216024 -117.206888 97 6918ft 99kts
23-Oct-20 11:08 33.212485 -117.173900 100 6916ft 99kts
23-Oct-20 11:09 33.208235 -117.140327 101 6500ft 96kts
23-Oct-20 11:10 33.201793 -117.112017 164 5614ft 87kts
23-Oct-20 11:11 33.176843 -117.109926 185 4765ft 87kts
23-Oct-20 11:12 33.152549 -117.114824 189 4013ft 92kts
23-Oct-20 11:13 33.127742 -117.120321 189 3635ft 91kts
23-Oct-20 11:14 33.102364 -117.125945 189 3625ft 98kts
23-Oct-20 11:15 33.076827 -117.124325 122 3576ft 104kts
23-Oct-20 11:16 33.065308 -117.089950 104 3137ft 115kts
23-Oct-20 11:17 33.059815 -117.054846 102 3114ft 103kts
23-Oct-20 11:18 33.054873 -117.021218 102 3130ft 95kts
23-Oct-20 11:19 33.050402 -116.991626 103 2833ft 96kts
23-Oct-20 11:20 33.045682 -116.959792 102 2202ft 98kts
23-Oct-20 11:21 33.041052 -116.928362 103 1530ft 87kts
23-Oct-20 11:22 33.039482 -116.914757 20 1396ft 0kts
23-Oct-20 11:23 33.039484 -116.914756 20 1396ft 0kts

Navigation Log

Ident Type
Flight plan parsing failed, navigation log unavailable